Saint Clair, Minnesota
Current Conditions -  °F | °C
As of 7:35 AM on Saturday 25 Oct 2014 (Local Time) from KMKT Reporting Station
Clear Clear  
Wind Chill: 50°   Ceiling: Unl
Heat Index: 50°   Visibility: 10mi
Dew Point: 34°   Wind: 9mph
Humidity: 54%   Direction: 290°WNW
Pressure: 30.04"   Gusts: NA
Location:  44.08°N, 93.86°W
Report Text: KMKT 251235Z AUTO 29008KT 10SM CLR 10/01 A3004 RMK AO1
Loading
Personal Weather Stations






























Interactive Weather Map
Tropical Storm Tracking
New forecast layout! Learn more

10-Day Weather Forecast

Advertisements
Track Severe Weather on mobile